createdAt,value
2018-04-10T00:01:16.594Z,12.60
2018-04-10T00:03:44.213Z,12.60
2018-04-10T00:06:11.779Z,12.60
2018-04-10T00:08:39.347Z,12.60
2018-04-10T00:11:06.963Z,12.60
2018-04-10T00:13:34.545Z,12.50
2018-04-10T00:16:02.143Z,12.50
2018-04-10T00:18:29.710Z,12.50
2018-04-10T00:20:57.335Z,12.50
2018-04-10T00:23:24.927Z,12.50
2018-04-10T00:25:52.530Z,12.50
2018-04-10T00:28:20.122Z,12.50
2018-04-10T00:30:47.732Z,12.50
2018-04-10T00:33:15.305Z,12.50
2018-04-10T00:35:42.915Z,12.50
2018-04-10T00:38:10.521Z,12.50
2018-04-10T00:40:38.142Z,12.60
2018-04-10T00:43:05.704Z,12.60
2018-04-10T00:45:33.268Z,12.60
2018-04-10T00:48:00.866Z,12.60
2018-04-10T00:50:28.436Z,12.60
2018-04-10T00:53:07.830Z,12.70
2018-04-10T00:55:35.394Z,12.60
2018-04-10T00:58:03.007Z,12.70
2018-04-10T01:00:31.343Z,12.70
2018-04-10T01:02:58.945Z,12.70
2018-04-10T01:05:27.315Z,12.70
2018-04-10T01:07:54.881Z,12.70
2018-04-10T01:10:23.248Z,12.80
2018-04-10T01:12:50.818Z,12.80
2018-04-10T01:15:18.416Z,12.80
2018-04-10T01:17:46.015Z,12.90
2018-04-10T01:20:13.616Z,12.80
2018-04-10T01:22:41.221Z,12.80
2018-04-10T01:25:08.828Z,12.80
2018-04-10T01:27:37.164Z,12.80
2018-04-10T01:30:04.763Z,12.80
2018-04-10T01:32:32.327Z,12.80
2018-04-10T01:34:59.946Z,12.80
2018-04-10T01:37:27.552Z,12.80
2018-04-10T01:39:55.919Z,12.80
2018-04-10T01:42:23.513Z,12.80
2018-04-10T01:44:51.085Z,12.80
2018-04-10T01:47:18.882Z,12.80
2018-04-10T01:49:46.506Z,12.80
2018-04-10T01:52:14.110Z,12.80
2018-04-10T01:54:41.677Z,12.80
2018-04-10T01:57:09.288Z,12.70
2018-04-10T01:59:36.853Z,12.70
2018-04-10T02:02:04.461Z,12.70
2018-04-10T02:04:32.069Z,12.70
2018-04-10T02:06:59.635Z,12.70
2018-04-10T02:09:27.200Z,12.70
2018-04-10T02:11:54.810Z,12.60
2018-04-10T02:14:22.406Z,12.60
2018-04-10T02:16:49.966Z,12.50
2018-04-10T02:19:18.335Z,12.50
2018-04-10T02:21:46.662Z,12.40
2018-04-10T02:24:14.267Z,12.40
2018-04-10T02:26:41.883Z,12.40
2018-04-10T02:29:09.501Z,12.40
2018-04-10T02:31:37.106Z,12.40
2018-04-10T02:34:04.718Z,12.40
2018-04-10T02:36:32.295Z,12.40
2018-04-10T02:38:59.913Z,12.40
2018-04-10T02:41:28.728Z,12.40
2018-04-10T02:43:57.264Z,12.40
2018-04-10T02:46:24.892Z,12.40
2018-04-10T02:48:52.482Z,12.40
2018-04-10T02:51:20.101Z,12.40
2018-04-10T02:53:47.707Z,12.40
2018-04-10T02:56:15.321Z,12.40
2018-04-10T02:58:43.858Z,12.40
2018-04-10T03:01:13.128Z,12.40
2018-04-10T03:03:40.709Z,12.40
2018-04-10T03:06:08.385Z,12.50
2018-04-10T03:08:35.977Z,12.40
2018-04-10T03:11:03.608Z,12.40
2018-04-10T03:13:31.185Z,12.40
2018-04-10T03:15:58.766Z,12.40
2018-04-10T03:18:26.384Z,12.40
2018-04-10T03:20:53.947Z,12.30
2018-04-10T03:23:21.521Z,12.30
2018-04-10T03:25:49.130Z,12.30
2018-04-10T03:28:16.744Z,12.30
2018-04-10T03:30:44.317Z,12.30
2018-04-10T03:33:11.929Z,12.20
2018-04-10T03:35:39.548Z,12.20
2018-04-10T03:38:07.163Z,12.20
2018-04-10T03:40:34.735Z,12.10
2018-04-10T03:43:02.321Z,12.20
2018-04-10T03:45:29.925Z,12.10
2018-04-10T03:47:57.514Z,12.00
2018-04-10T03:50:25.149Z,12.00
2018-04-10T03:52:52.762Z,11.90
2018-04-10T03:55:20.551Z,11.80
2018-04-10T03:57:48.168Z,11.80
2018-04-10T04:00:15.778Z,11.70
2018-04-10T04:02:44.148Z,11.60
2018-04-10T04:05:11.744Z,11.60
2018-04-10T04:07:39.349Z,11.60
2018-04-10T04:10:06.965Z,11.60
2018-04-10T04:12:34.572Z,11.60
2018-04-10T04:15:02.213Z,11.60
2018-04-10T04:17:33.566Z,11.50
2018-04-10T04:20:12.872Z,11.50
2018-04-10T04:22:40.443Z,11.50
2018-04-10T04:25:08.057Z,11.50
2018-04-10T04:27:35.628Z,11.40
2018-04-10T04:30:03.412Z,11.40
2018-04-10T04:32:31.781Z,11.40
2018-04-10T04:35:00.168Z,11.50
2018-04-10T04:37:28.509Z,11.50
2018-04-10T04:39:56.117Z,11.50
2018-04-10T04:42:24.484Z,11.40
2018-04-10T04:44:52.817Z,11.30
2018-04-10T04:47:20.484Z,11.30
2018-04-10T04:49:48.056Z,11.20
2018-04-10T04:52:15.691Z,11.20
2018-04-10T04:54:43.315Z,11.10
2018-04-10T04:57:10.892Z,11.00
2018-04-10T04:59:38.490Z,10.90
2018-04-10T05:02:06.114Z,10.90
2018-04-10T05:04:33.688Z,10.80
2018-04-10T05:07:01.345Z,10.80
2018-04-10T05:09:28.920Z,10.70
2018-04-10T05:11:56.579Z,10.70
2018-04-10T05:14:24.201Z,10.80
2018-04-10T05:16:51.884Z,10.80
2018-04-10T05:19:19.455Z,10.80
2018-04-10T05:21:47.084Z,10.80
2018-04-10T05:24:15.410Z,10.80
2018-04-10T05:26:43.025Z,10.70
2018-04-10T05:29:10.611Z,10.80
2018-04-10T05:31:38.297Z,10.80
2018-04-10T05:34:05.922Z,10.80
2018-04-10T05:36:34.337Z,10.70
2018-04-10T05:39:02.041Z,10.70
2018-04-10T05:41:29.615Z,10.70
2018-04-10T05:43:57.193Z,10.70
2018-04-10T05:46:24.807Z,10.60
2018-04-10T05:48:52.571Z,10.60
2018-04-10T05:51:20.176Z,10.60
2018-04-10T05:53:47.751Z,10.60
2018-04-10T05:56:15.360Z,10.50
2018-04-10T05:58:43.013Z,10.50
2018-04-10T06:01:10.591Z,10.50
2018-04-10T06:03:38.163Z,10.50
2018-04-10T06:06:05.764Z,10.50
2018-04-10T06:08:33.373Z,10.50
2018-04-10T06:11:00.944Z,10.50
2018-04-10T06:13:28.563Z,10.60
2018-04-10T06:15:56.132Z,10.60
2018-04-10T06:18:23.695Z,10.70
2018-04-10T06:20:52.062Z,10.90
2018-04-10T06:23:19.632Z,10.90
2018-04-10T06:25:47.235Z,11.00
2018-04-10T06:28:14.822Z,11.00
2018-04-10T06:30:42.448Z,11.10
2018-04-10T06:33:10.025Z,11.20
2018-04-10T06:35:38.359Z,11.30
2018-04-10T06:38:05.975Z,11.30
2018-04-10T06:40:33.544Z,11.30
2018-04-10T06:43:01.153Z,11.40
2018-04-10T06:45:28.730Z,11.50
2018-04-10T06:47:56.338Z,11.60
2018-04-10T06:50:23.904Z,11.60
2018-04-10T06:52:51.542Z,11.70
2018-04-10T06:55:19.121Z,11.80
2018-04-10T06:57:46.901Z,11.90
2018-04-10T07:00:16.193Z,12.00
2018-04-10T07:02:43.810Z,12.10
2018-04-10T07:05:11.493Z,12.20
2018-04-10T07:07:39.070Z,12.20
2018-04-10T07:10:06.676Z,12.30
2018-04-10T07:12:34.522Z,12.40
2018-04-10T07:15:02.121Z,12.50
2018-04-10T07:17:29.722Z,12.60
2018-04-10T07:19:57.302Z,12.60
2018-04-10T07:22:24.921Z,12.70
2018-04-10T07:24:52.489Z,12.80
2018-04-10T07:27:20.119Z,12.90
2018-04-10T07:29:47.688Z,13.10
2018-04-10T07:32:15.358Z,13.20
2018-04-10T07:34:42.929Z,13.20
2018-04-10T07:37:11.743Z,13.40
2018-04-10T07:39:39.346Z,13.40
2018-04-10T07:42:07.031Z,13.60
2018-04-10T07:44:35.403Z,13.80
2018-04-10T07:47:03.009Z,13.70
2018-04-10T07:49:31.731Z,13.80
2018-04-10T07:51:59.570Z,13.90
2018-04-10T07:54:28.612Z,14.00
2018-04-10T07:56:56.171Z,14.10
2018-04-10T07:59:24.413Z,14.20
2018-04-10T08:01:52.020Z,14.20
2018-04-10T08:04:20.389Z,14.40
2018-04-10T08:06:47.969Z,14.40
2018-04-10T08:09:16.340Z,14.70
2018-04-10T08:11:44.680Z,14.80
2018-04-10T08:14:12.248Z,14.80
2018-04-10T08:16:39.854Z,14.90
2018-04-10T08:19:07.423Z,15.00
2018-04-10T08:21:36.745Z,15.00
2018-04-10T08:24:04.333Z,15.10
2018-04-10T08:26:31.941Z,15.20
2018-04-10T08:28:59.518Z,15.20
2018-04-10T08:31:27.126Z,15.20
2018-04-10T08:33:54.717Z,15.20
2018-04-10T08:36:22.341Z,15.20
2018-04-10T08:38:49.970Z,15.10
2018-04-10T08:41:17.703Z,15.10
2018-04-10T08:43:45.338Z,15.20
2018-04-10T08:46:12.910Z,15.30
2018-04-10T08:48:40.536Z,15.40
2018-04-10T08:51:08.175Z,15.50
2018-04-10T08:53:35.747Z,15.60
2018-04-10T08:56:03.317Z,15.70
2018-04-10T08:58:31.074Z,15.90
2018-04-10T09:00:58.681Z,16.00
2018-04-10T09:03:26.251Z,16.10
2018-04-10T09:05:54.651Z,16.30
2018-04-10T09:08:22.271Z,16.30
2018-04-10T09:10:49.838Z,16.40
2018-04-10T09:13:17.452Z,16.50
2018-04-10T09:15:45.029Z,16.60
2018-04-10T09:18:12.602Z,16.60
2018-04-10T09:20:40.215Z,16.80
2018-04-10T09:23:07.801Z,16.90
2018-04-10T09:25:35.415Z,17.10
2018-04-10T09:28:03.832Z,17.20
2018-04-10T09:30:31.408Z,17.10
2018-04-10T09:32:59.020Z,17.10
2018-04-10T09:35:27.353Z,17.10
2018-04-10T09:37:54.964Z,17.10
2018-04-10T09:40:23.390Z,17.10
2018-04-10T09:42:51.154Z,17.10
2018-04-10T09:45:18.760Z,17.20
2018-04-10T09:47:46.378Z,17.30
2018-04-10T09:50:13.996Z,17.40
2018-04-10T09:52:41.629Z,17.60
2018-04-10T09:55:09.245Z,17.80
2018-04-10T09:57:36.816Z,17.80
2018-04-10T10:00:04.420Z,17.90
2018-04-10T10:02:32.078Z,18.10
2018-04-10T10:04:59.644Z,18.20
2018-04-10T10:07:27.247Z,18.20
2018-04-10T10:09:54.816Z,18.20
2018-04-10T10:12:26.328Z,18.20
2018-04-10T10:14:55.892Z,18.20
2018-04-10T10:17:23.783Z,18.10
2018-04-10T10:19:51.406Z,18.10
2018-04-10T10:22:19.049Z,18.20
2018-04-10T10:24:47.388Z,18.50
2018-04-10T10:27:14.959Z,18.50
2018-04-10T10:29:42.566Z,18.60
2018-04-10T10:32:10.168Z,18.70
2018-04-10T10:34:37.772Z,18.70
2018-04-10T10:37:05.345Z,18.70
2018-04-10T10:39:32.976Z,18.70
2018-04-10T10:42:00.590Z,18.70
2018-04-10T10:44:28.200Z,18.80
2018-04-10T10:46:56.773Z,18.90
2018-04-10T10:49:24.381Z,18.90
2018-04-10T10:51:51.957Z,18.90
2018-04-10T10:54:19.595Z,19.00
2018-04-10T10:56:47.211Z,19.00
2018-04-10T10:59:14.825Z,19.10
2018-04-10T11:01:42.389Z,19.20
2018-04-10T11:04:09.961Z,19.30
2018-04-10T11:06:37.569Z,19.40
2018-04-10T11:09:06.047Z,19.60
2018-04-10T11:11:33.673Z,19.70
2018-04-10T11:14:01.296Z,19.70
2018-04-10T11:16:28.872Z,19.80
2018-04-10T11:18:56.472Z,19.90
2018-04-10T11:21:24.086Z,20.00
2018-04-10T11:23:51.705Z,19.90
2018-04-10T11:26:19.290Z,19.80
2018-04-10T11:28:46.910Z,19.90
2018-04-10T11:31:14.542Z,19.90
2018-04-10T11:33:42.121Z,19.90
2018-04-10T11:36:09.693Z,19.90
2018-04-10T11:38:38.395Z,20.10
2018-04-10T11:41:06.012Z,20.10
2018-04-10T11:43:33.576Z,20.20
2018-04-10T11:46:01.173Z,20.30
2018-04-10T11:48:28.783Z,20.40
2018-04-10T11:50:56.363Z,20.50
2018-04-10T11:53:23.969Z,20.60
2018-04-10T11:55:51.580Z,20.60
2018-04-10T11:58:19.165Z,20.70
2018-04-10T12:00:46.777Z,20.70
2018-04-10T12:03:14.340Z,20.80
2018-04-10T12:05:42.729Z,20.80
2018-04-10T12:08:11.064Z,20.80
2018-04-10T12:10:38.643Z,20.80
2018-04-10T12:13:06.305Z,20.90
2018-04-10T12:15:33.872Z,20.90
2018-04-10T12:18:01.472Z,21.10
2018-04-10T12:20:29.032Z,21.20
2018-04-10T12:22:56.644Z,21.30
2018-04-10T12:25:24.213Z,21.30
2018-04-10T12:27:51.825Z,21.40
2018-04-10T12:30:19.403Z,21.40
2018-04-10T12:35:23.768Z,21.40
2018-04-10T12:37:51.336Z,21.50
2018-04-10T12:40:19.692Z,21.60
2018-04-10T12:42:47.266Z,21.60
2018-04-10T12:45:14.891Z,21.70
2018-04-10T12:47:42.501Z,21.80
2018-04-10T12:50:10.111Z,21.90
2018-04-10T12:52:37.737Z,22.00
2018-04-10T12:55:05.324Z,22.10
2018-04-10T12:57:32.950Z,22.00
2018-04-10T13:00:00.526Z,22.00
2018-04-10T13:02:28.109Z,22.00
2018-04-10T13:04:55.723Z,22.10
2018-04-10T13:07:23.327Z,22.10
2018-04-10T13:09:50.896Z,22.10
2018-04-10T13:12:18.522Z,22.10
2018-04-10T13:14:46.898Z,22.30
2018-04-10T13:17:15.273Z,22.30
2018-04-10T13:19:43.618Z,22.40
2018-04-10T13:22:11.183Z,22.40
2018-04-10T13:24:38.828Z,22.40
2018-04-10T13:27:06.398Z,22.40
2018-04-10T13:29:33.978Z,22.60
2018-04-10T13:32:01.585Z,22.50
2018-04-10T13:34:29.205Z,22.40
2018-04-10T13:36:56.809Z,22.40
2018-04-10T13:39:24.379Z,22.40
2018-04-10T13:41:51.986Z,22.50
2018-04-10T13:44:19.593Z,22.70
2018-04-10T13:46:47.229Z,22.70
2018-04-10T13:49:15.557Z,22.50
2018-04-10T13:51:43.138Z,22.50
2018-04-10T13:54:10.745Z,22.40
2018-04-10T13:56:38.325Z,22.50
2018-04-10T13:59:05.936Z,22.50
2018-04-10T14:01:33.512Z,22.60
2018-04-10T14:04:01.913Z,22.70
2018-04-10T14:06:29.487Z,22.70
2018-04-10T14:08:57.065Z,22.80
2018-04-10T14:11:24.668Z,22.90
2018-04-10T14:13:52.245Z,23.10
2018-04-10T14:16:19.831Z,23.00
2018-04-10T14:18:47.452Z,23.00
2018-04-10T14:21:15.032Z,22.90
2018-04-10T14:23:42.640Z,22.80
2018-04-10T14:26:10.244Z,23.10
2018-04-10T14:28:38.580Z,23.30
2018-04-10T14:31:06.257Z,23.30
2018-04-10T14:33:33.833Z,23.30
2018-04-10T14:36:01.453Z,23.30
2018-04-10T14:38:29.030Z,23.30
2018-04-10T14:40:56.631Z,23.30
2018-04-10T14:43:24.281Z,23.10
2018-04-10T14:45:51.894Z,23.00
2018-04-10T14:48:19.470Z,22.90
2018-04-10T14:50:47.107Z,22.70
2018-04-10T14:53:14.689Z,22.50
2018-04-10T14:55:42.298Z,22.70
2018-04-10T14:58:09.879Z,22.80
2018-04-10T15:00:37.485Z,22.80
2018-04-10T15:03:05.062Z,22.70
2018-04-10T15:05:33.019Z,22.70
2018-04-10T15:08:00.596Z,22.70
2018-04-10T15:10:28.213Z,22.70
2018-04-10T15:12:55.854Z,22.80
2018-04-10T15:15:23.428Z,22.70
2018-04-10T15:17:51.011Z,22.60
2018-04-10T15:20:18.629Z,22.60
2018-04-10T15:22:46.241Z,22.50
2018-04-10T15:25:13.871Z,22.40
2018-04-10T15:27:41.449Z,22.30
2018-04-10T15:30:09.048Z,22.30
2018-04-10T15:32:36.660Z,22.30
2018-04-10T15:35:04.231Z,22.40
2018-04-10T15:37:31.848Z,22.20
2018-04-10T15:39:59.424Z,22.30
2018-04-10T15:42:26.997Z,22.40
2018-04-10T15:44:54.605Z,22.40
2018-04-10T15:47:22.216Z,22.20
2018-04-10T15:49:49.844Z,22.00
2018-04-10T15:52:17.458Z,21.80
2018-04-10T15:54:45.028Z,21.80
2018-04-10T15:57:12.638Z,22.00
2018-04-10T15:59:41.012Z,21.90
2018-04-10T16:02:09.348Z,21.70
2018-04-10T16:04:36.952Z,21.70
2018-04-10T16:07:04.529Z,21.50
2018-04-10T16:09:32.137Z,21.40
2018-04-10T16:11:59.716Z,21.30
2018-04-10T16:14:27.329Z,21.00
2018-04-10T16:16:54.933Z,20.70
2018-04-10T16:19:22.571Z,20.40
2018-04-10T16:21:50.181Z,19.90
2018-04-10T16:24:17.788Z,19.70
2018-04-10T16:26:45.393Z,19.50
2018-04-10T16:29:13.001Z,19.20
2018-04-10T16:31:40.639Z,19.10
2018-04-10T16:34:08.234Z,18.80
2018-04-10T16:36:35.857Z,18.60
2018-04-10T16:39:03.492Z,18.60
2018-04-10T16:41:31.067Z,18.70
2018-04-10T16:43:58.640Z,18.50
2018-04-10T16:46:27.019Z,18.40
2018-04-10T16:48:56.629Z,18.30
2018-04-10T16:51:24.967Z,18.20
2018-04-10T16:53:52.576Z,18.10
2018-04-10T16:56:20.155Z,18.00
2018-04-10T16:58:47.752Z,18.00
2018-04-10T17:01:15.398Z,18.00
2018-04-10T17:03:43.001Z,17.90
2018-04-10T17:06:10.625Z,17.80
2018-04-10T17:08:38.212Z,17.80
2018-04-10T17:11:05.780Z,17.70
2018-04-10T17:13:33.395Z,17.50
2018-04-10T17:16:00.997Z,17.50
2018-04-10T17:18:28.581Z,17.40
2018-04-10T17:20:56.192Z,17.30
2018-04-10T17:23:23.816Z,17.20
2018-04-10T17:25:52.147Z,17.10
2018-04-10T17:28:19.708Z,17.00
2018-04-10T17:30:47.316Z,17.10
2018-04-10T17:33:14.888Z,17.00
2018-04-10T17:35:42.502Z,16.90
2018-04-10T17:38:10.117Z,16.80
2018-04-10T17:40:37.726Z,16.80
2018-04-10T17:43:05.304Z,16.70
2018-04-10T17:45:33.667Z,16.40
2018-04-10T17:48:01.237Z,16.40
2018-04-10T17:50:29.794Z,16.30
2018-04-10T17:52:57.421Z,16.10
2018-04-10T17:55:24.988Z,15.90
2018-04-10T17:57:52.555Z,15.70
2018-04-10T18:00:20.158Z,15.50
2018-04-10T18:02:49.479Z,15.30
2018-04-10T18:05:17.053Z,15.10
2018-04-10T18:07:44.671Z,14.90
2018-04-10T18:10:12.245Z,14.70
2018-04-10T18:12:39.856Z,14.60
2018-04-10T18:15:07.425Z,14.40
2018-04-10T18:17:35.034Z,14.20
2018-04-10T18:20:02.643Z,14.00
2018-04-10T18:22:30.229Z,13.90
2018-04-10T18:24:57.852Z,13.70
2018-04-10T18:27:25.425Z,13.60
2018-04-10T18:29:52.996Z,13.50
2018-04-10T18:32:20.625Z,13.40
2018-04-10T18:34:48.194Z,13.40
2018-04-10T18:37:15.770Z,13.20
2018-04-10T18:39:43.405Z,13.20
2018-04-10T18:42:10.977Z,13.00
2018-04-10T18:44:38.588Z,13.00
2018-04-10T18:47:06.158Z,12.90
2018-04-10T18:49:33.763Z,12.90
2018-04-10T18:52:01.380Z,12.80
2018-04-10T18:54:28.967Z,12.80
2018-04-10T18:56:57.348Z,12.50
2018-04-10T18:59:25.733Z,12.50
2018-04-10T19:01:53.365Z,12.40
2018-04-10T19:04:20.976Z,12.30
2018-04-10T19:06:48.616Z,12.30
2018-04-10T19:09:16.184Z,12.20
2018-04-10T19:11:43.760Z,12.10
2018-04-10T19:14:11.396Z,12.10
2018-04-10T19:16:39.777Z,11.90
2018-04-10T19:19:07.394Z,11.90
2018-04-10T19:21:34.963Z,11.90
2018-04-10T19:24:02.624Z,11.80
2018-04-10T19:26:30.220Z,11.70
2018-04-10T19:28:58.600Z,11.60
2018-04-10T19:31:26.939Z,11.50
2018-04-10T19:33:54.506Z,11.50
2018-04-10T19:36:22.116Z,11.40
2018-04-10T19:38:49.689Z,11.40
2018-04-10T19:41:17.308Z,11.30
2018-04-10T19:43:45.648Z,11.00
2018-04-10T19:46:13.216Z,11.00
2018-04-10T19:48:40.828Z,10.90
2018-04-10T19:51:08.401Z,10.80
2018-04-10T19:53:36.017Z,10.70
2018-04-10T19:56:05.241Z,10.60
2018-04-10T19:58:33.621Z,10.40
2018-04-10T20:01:01.955Z,10.30
2018-04-10T20:03:29.672Z,10.30
2018-04-10T20:05:57.261Z,10.20
2018-04-10T20:08:24.941Z,10.10
2018-04-10T20:10:53.081Z,10.00
2018-04-10T20:13:20.670Z,10.00
2018-04-10T20:15:49.043Z,9.90
2018-04-10T20:18:16.797Z,9.80
2018-04-10T20:20:44.443Z,9.80
2018-04-10T20:23:12.006Z,9.70
2018-04-10T20:25:39.736Z,9.60
2018-04-10T20:28:07.304Z,9.60
2018-04-10T20:30:34.939Z,9.50
2018-04-10T20:33:02.585Z,9.50
2018-04-10T20:35:30.169Z,9.50
2018-04-10T20:37:57.757Z,9.40
2018-04-10T20:40:26.133Z,9.20
2018-04-10T20:42:54.507Z,9.10
2018-04-10T20:45:22.161Z,9.10
2018-04-10T20:47:49.875Z,9.00
2018-04-10T20:50:17.669Z,9.00
2018-04-10T20:52:45.517Z,9.00
2018-04-10T20:55:13.692Z,8.90
2018-04-10T20:57:41.295Z,8.90
2018-04-10T21:00:08.915Z,8.80
2018-04-10T21:02:36.701Z,8.70
2018-04-10T21:05:04.281Z,8.70
2018-04-10T21:07:31.991Z,8.60
2018-04-10T21:10:01.498Z,8.50
2018-04-10T21:12:29.151Z,8.50
2018-04-10T21:14:56.819Z,8.40
2018-04-10T21:17:26.883Z,8.30
2018-04-10T21:19:54.752Z,8.30
2018-04-10T21:22:22.407Z,8.20
2018-04-10T21:24:49.979Z,8.20
2018-04-10T21:27:17.593Z,8.10
2018-04-10T21:29:45.243Z,8.10
2018-04-10T21:32:12.877Z,8.00
2018-04-10T21:34:40.573Z,8.00
2018-04-10T21:37:08.156Z,7.90
2018-04-10T21:39:35.780Z,7.90
2018-04-10T21:42:03.794Z,7.80
2018-04-10T21:44:31.456Z,7.80
2018-04-10T21:46:59.121Z,7.70
2018-04-10T21:49:26.812Z,7.70
2018-04-10T21:51:54.380Z,7.60
2018-04-10T21:54:22.041Z,7.60
2018-04-10T21:56:49.652Z,7.60
2018-04-10T21:59:17.221Z,7.60
2018-04-10T22:01:46.151Z,7.50
2018-04-10T22:04:13.881Z,7.50
2018-04-10T22:06:41.489Z,7.50
2018-04-10T22:09:09.059Z,7.40
2018-04-10T22:11:36.673Z,7.40
2018-04-10T22:14:04.303Z,7.40
2018-04-10T22:16:31.947Z,7.30
2018-04-10T22:18:59.525Z,7.30
2018-04-10T22:21:27.304Z,7.30
2018-04-10T22:23:54.878Z,7.30
2018-04-10T22:26:22.485Z,7.20
2018-04-10T22:28:50.101Z,7.20
2018-04-10T22:31:17.675Z,7.20
2018-04-10T22:33:46.005Z,7.20
2018-04-10T22:36:13.631Z,7.10
2018-04-10T22:38:41.972Z,7.10
2018-04-10T22:41:09.572Z,7.10
2018-04-10T22:43:37.963Z,7.00
2018-04-10T22:46:05.554Z,7.00
2018-04-10T22:48:33.169Z,7.00
2018-04-10T22:51:00.791Z,7.00
2018-04-10T22:53:28.405Z,7.00
2018-04-10T22:55:56.102Z,7.00
2018-04-10T22:58:23.719Z,7.00
2018-04-10T23:00:52.054Z,6.90
2018-04-10T23:03:19.667Z,6.90
2018-04-10T23:05:48.043Z,6.90
2018-04-10T23:08:16.395Z,6.90
2018-04-10T23:10:44.013Z,6.90
2018-04-10T23:13:11.625Z,6.90
2018-04-10T23:15:39.197Z,6.80
2018-04-10T23:18:06.848Z,6.80
2018-04-10T23:20:34.423Z,6.80
2018-04-10T23:23:02.000Z,6.80
2018-04-10T23:25:29.654Z,6.70
2018-04-10T23:27:57.222Z,6.70
2018-04-10T23:30:24.836Z,6.70
2018-04-10T23:32:52.449Z,6.70
2018-04-10T23:35:20.026Z,6.70
2018-04-10T23:37:48.360Z,6.70
2018-04-10T23:40:16.003Z,6.70
2018-04-10T23:42:43.563Z,6.70
2018-04-10T23:45:11.176Z,6.70
2018-04-10T23:47:38.741Z,6.60
2018-04-10T23:50:06.361Z,6.60
2018-04-10T23:52:33.973Z,6.70
2018-04-10T23:55:01.609Z,6.70
2018-04-10T23:57:29.186Z,6.70
2018-04-10T23:59:56.754Z,6.70
